Time;durP1;ratioP1;P1;durP2;ratioP2;P2;SDS_P1;SDS_P2;PMS_P1;PMS_P2;Temp;Humidity;BMP_temperature;BMP_pressure;BME280_temperature;BME280_humidity;BME280_pressure;Samples;Min_cycle;Max_cycle;Signal;HPM_P1;HPM_P2
2021/11/20 00:01:36;;;;;;;0.50;0.40;;;;;;;8.30;90.59;98500.97;1752912;80;20991;-56
2021/11/20 00:04:04;;;;;;;0.30;0.30;;;;;;;8.31;90.66;98509.44;1750775;80;20971;-55
2021/11/20 00:06:35;;;;;;;0.40;0.30;;;;;;;8.31;90.74;98501.40;1751537;80;20951;-56
2021/11/20 00:09:03;;;;;;;0.30;0.30;;;;;;;8.35;90.78;98496.70;1754166;80;20932;-55
2021/11/20 00:11:32;;;;;;;0.40;0.40;;;;;;;8.35;90.85;98492.20;1750609;80;21450;-55
2021/11/20 00:13:58;;;;;;;0.40;0.30;;;;;;;8.37;90.93;98488.09;1752380;80;20928;-55
2021/11/20 00:16:25;;;;;;;0.40;0.40;;;;;;;8.40;90.98;98492.42;1751574;80;20975;-55
2021/11/20 00:18:52;;;;;;;0.50;0.50;;;;;;;8.43;91.06;98496.24;1753526;80;20931;-55
2021/11/20 00:21:31;;;;;;;0.60;0.50;;;;;;;8.44;91.17;98487.25;1751427;80;20987;-55
2021/11/20 00:23:59;;;;;;;2.40;0.40;;;;;;;8.47;91.16;98479.90;1751749;80;21148;-55
2021/11/20 00:26:33;;;;;;;1.98;0.47;;;;;;;8.49;91.20;98475.79;1748592;80;21485;-55
2021/11/20 00:31:30;;;;;;;1.70;0.60;;;;;;;8.53;91.38;98468.80;1751525;80;21043;-55
2021/11/20 00:33:57;;;;;;;1.42;0.50;;;;;;;8.57;91.43;98466.80;1749034;80;21407;-55
2021/11/20 00:36:25;;;;;;;0.72;0.65;;;;;;;8.59;91.48;98455.52;1752064;80;21050;-55
2021/11/20 00:38:53;;;;;;;0.70;0.60;;;;;;;8.61;91.51;98456.25;1739929;80;21080;-55
2021/11/20 00:41:23;;;;;;;0.62;0.60;;;;;;;8.64;91.59;98456.95;1704582;81;20969;-55
2021/11/20 00:43:50;;;;;;;0.72;0.70;;;;;;;8.66;91.64;98452.36;1732231;81;21567;-55
2021/11/20 00:46:20;;;;;;;0.70;0.60;;;;;;;8.70;91.63;98449.86;1739049;80;20973;-54
2021/11/20 00:48:47;;;;;;;1.70;0.70;;;;;;;8.72;91.62;98446.61;1730718;81;21081;-54
2021/11/20 00:51:15;;;;;;;3.17;0.70;;;;;;;8.74;91.69;98441.16;1728948;81;21334;-54
2021/11/20 00:53:44;;;;;;;0.95;0.70;;;;;;;8.77;91.72;98436.06;1738514;81;20977;-54
2021/11/20 00:56:12;;;;;;;0.90;0.75;;;;;;;8.79;91.75;98428.78;1738707;81;20934;-54
2021/11/20 00:58:39;;;;;;;0.70;0.70;;;;;;;8.80;91.77;98428.70;1733804;81;20942;-54
2021/11/20 01:01:09;;;;;;;0.98;0.75;;;;;;;8.82;91.77;98416.53;1735801;81;21110;-54
2021/11/20 01:03:37;;;;;;;1.37;0.80;;;;;;;8.83;91.75;98411.55;1741567;81;21416;-54
2021/11/20 01:06:04;;;;;;;3.12;0.90;;;;;;;8.85;91.82;98397.53;1736193;81;21392;-54
2021/11/20 01:08:35;;;;;;;0.93;0.80;;;;;;;8.88;91.85;98407.61;1730432;81;21523;-54
2021/11/20 01:11:07;;;;;;;0.80;0.80;;;;;;;8.91;91.93;98394.02;1706622;81;21294;-54
2021/11/20 01:13:34;;;;;;;0.85;0.85;;;;;;;8.95;91.99;98383.93;1731212;81;21124;-54
2021/11/20 01:17:19;;;;;;;1.63;1.00;;;;;;;9.03;91.96;98380.28;1787940;78;23670;-54
2021/11/20 01:19:47;;;;;;;1.67;1.00;;;;;;;9.01;91.95;98375.03;1767518;80;20942;-55
2021/11/20 01:22:22;;;;;;;0.95;0.90;;;;;;;9.02;91.96;98382.09;1771280;80;21257;-55
2021/11/20 01:25:03;;;;;;;1.00;0.90;;;;;;;9.03;91.98;98367.72;1764265;80;21510;-55
2021/11/20 01:27:34;;;;;;;1.20;1.10;;;;;;;9.04;92.05;98365.91;1770155;80;20933;-55
2021/11/20 01:30:06;;;;;;;1.55;1.00;;;;;;;9.06;92.14;98361.31;1766400;80;20910;-55
2021/11/20 01:32:32;;;;;;;1.30;1.20;;;;;;;9.07;92.15;98355.84;1763282;80;21262;-55
2021/11/20 01:34:59;;;;;;;1.20;1.10;;;;;;;9.10;92.20;98354.80;1769297;80;21837;-55
2021/11/20 01:37:25;;;;;;;1.30;0.90;;;;;;;9.13;92.20;98349.69;1764795;80;22238;-55
2021/11/20 01:39:52;;;;;;;1.02;0.90;;;;;;;9.15;92.29;98345.95;1763001;80;21367;-55
2021/11/20 01:42:26;;;;;;;0.80;0.70;;;;;;;9.18;92.33;98335.03;1762579;80;21092;-55
2021/11/20 01:45:22;;;;;;;1.35;1.25;;;;;;;9.20;92.33;98322.82;1763012;80;21076;-55
2021/11/20 01:48:23;;;;;;;2.17;0.95;;;;;;;9.23;92.37;98315.44;1774365;80;21121;-55
2021/11/20 01:51:02;;;;;;;1.32;0.93;;;;;;;9.26;92.40;98313.91;1708050;81;21403;-55
2021/11/20 01:53:36;;;;;;;1.05;1.05;;;;;;;9.28;92.40;98307.07;1706275;82;21386;-55
2021/11/20 01:56:18;;;;;;;0.90;0.90;;;;;;;9.29;92.48;98294.03;1722364;82;20921;-55
2021/11/20 01:59:01;;;;;;;1.10;1.00;;;;;;;9.30;92.50;98287.22;1711841;82;20934;-55
2021/11/20 02:01:43;;;;;;;1.20;1.10;;;;;;;9.33;92.54;98288.38;1633588;82;21080;-55
2021/11/20 02:04:41;;;;;;;1.20;1.00;;;;;;;9.35;92.60;98285.59;1710870;82;21030;-55
2021/11/20 02:07:35;;;;;;;1.17;0.95;;;;;;;9.37;92.60;98276.92;1716693;82;21041;-55
2021/11/20 02:10:23;;;;;;;1.67;1.12;;;;;;;9.39;92.68;98272.32;1715452;82;21101;-55
2021/11/20 02:13:03;;;;;;;1.32;0.90;;;;;;;9.40;92.78;98270.88;1712700;82;21164;-55
2021/11/20 02:15:40;;;;;;;2.15;0.98;;;;;;;9.45;92.81;98270.56;1712276;81;21183;-54
2021/11/20 02:18:08;;;;;;;2.40;0.90;;;;;;;9.46;92.81;98264.23;1757897;80;21033;-54
2021/11/20 02:20:44;;;;;;;5.05;0.70;;;;;;;9.48;92.78;98267.68;1755968;80;21630;-54
2021/11/20 02:23:12;;;;;;;0.85;0.70;;;;;;;9.51;92.81;98266.14;1759191;80;21476;-54
2021/11/20 02:25:39;;;;;;;0.93;0.70;;;;;;;9.53;92.81;98266.88;1738934;80;22334;-54
2021/11/20 02:28:10;;;;;;;0.60;0.60;;;;;;;9.58;92.86;98263.41;1738374;80;22504;-54
2021/11/20 02:30:42;;;;;;;2.15;0.70;;;;;;;9.62;92.84;98258.67;1691311;82;21154;-54
2021/11/20 02:33:25;;;;;;;0.90;0.70;;;;;;;9.63;92.84;98250.52;1740483;80;20880;-55
2021/11/20 02:36:05;;;;;;;1.67;0.60;;;;;;;9.66;92.83;98253.01;1759482;80;21385;-54
2021/11/20 02:38:49;;;;;;;3.25;0.70;;;;;;;9.68;92.85;98252.43;1760667;80;20919;-55
2021/11/20 02:41:17;;;;;;;0.70;0.68;;;;;;;9.73;92.79;98249.41;1765673;80;21492;-55
2021/11/20 02:43:48;;;;;;;1.35;0.70;;;;;;;9.74;92.75;98245.77;1695626;82;21000;-54
2021/11/20 02:46:19;;;;;;;1.17;0.60;;;;;;;9.76;92.73;98244.70;1696365;82;20971;-55
2021/11/20 02:48:46;;;;;;;0.80;0.53;;;;;;;9.81;92.74;98228.25;1762688;80;20881;-54
2021/11/20 02:51:18;;;;;;;0.70;0.50;;;;;;;9.83;92.65;98240.63;1764217;80;20886;-54
2021/11/20 02:53:52;;;;;;;0.60;0.50;;;;;;;9.88;92.64;98224.16;1762764;80;20972;-54
2021/11/20 02:56:22;;;;;;;0.90;0.80;;;;;;;9.91;92.51;98240.57;1725479;82;22272;-54
2021/11/20 02:58:49;;;;;;;2.52;0.50;;;;;;;9.93;92.50;98235.95;1760974;80;20914;-54
2021/11/20 03:01:26;;;;;;;1.12;0.60;;;;;;;9.96;92.50;98246.47;1762480;80;20950;-54
2021/11/20 03:03:53;;;;;;;1.98;0.55;;;;;;;9.98;92.43;98228.42;1695615;82;20960;-54
2021/11/20 03:06:20;;;;;;;0.68;0.50;;;;;;;10.00;92.31;98231.86;1760539;80;22128;-54
2021/11/20 03:08:46;;;;;;;2.15;0.60;;;;;;;10.00;92.35;98231.38;1762848;80;20918;-54
2021/11/20 03:11:16;;;;;;;0.80;0.60;;;;;;;10.03;92.30;98229.84;1697674;82;20964;-54
2021/11/20 03:13:50;;;;;;;1.00;0.50;;;;;;;10.05;92.26;98231.91;1764301;80;21538;-54
2021/11/20 03:16:29;;;;;;;;;;;;;;;10.08;92.20;98223.64;1763338;80;20951;-54
2021/11/20 03:18:56;;;;;;;0.80;0.50;;;;;;;10.11;92.06;98231.50;1754930;80;21870;-54
2021/11/20 03:21:23;;;;;;;0.65;0.50;;;;;;;10.11;92.01;98227.95;1753176;80;21082;-54
2021/11/20 03:23:54;;;;;;;1.37;0.50;;;;;;;10.11;92.03;98215.38;1749941;80;21114;-54
2021/11/20 03:26:21;;;;;;;0.60;0.57;;;;;;;10.13;92.06;98228.20;1756055;80;20962;-54
2021/11/20 03:28:47;;;;;;;1.25;0.50;;;;;;;10.16;91.95;98227.13;1756661;80;21456;-54
2021/11/20 03:31:14;;;;;;;0.50;0.50;;;;;;;10.15;91.83;98220.03;1755379;80;21350;-54
2021/11/20 03:33:40;;;;;;;0.42;0.42;;;;;;;10.18;91.88;98227.92;1756167;80;21323;-55
2021/11/20 03:36:07;;;;;;;1.55;0.80;;;;;;;10.19;91.73;98227.82;1727978;80;20921;-54
2021/11/20 03:38:34;;;;;;;0.80;0.53;;;;;;;10.20;91.68;98239.44;1735504;80;21322;-54
2021/11/20 03:41:03;;;;;;;0.68;0.50;;;;;;;10.20;91.61;98234.06;1690262;82;21143;-54
2021/11/20 03:43:31;;;;;;;1.00;0.40;;;;;;;10.22;91.57;98221.34;1754330;80;21142;-53
2021/11/20 03:45:57;;;;;;;0.53;0.40;;;;;;;10.23;91.50;98225.76;1751951;80;21101;-54
2021/11/20 03:48:24;;;;;;;0.40;0.40;;;;;;;10.24;91.35;98221.62;1694530;82;20905;-54
2021/11/20 03:50:51;;;;;;;0.50;0.50;;;;;;;10.27;91.19;98217.86;1757490;80;20891;-54
2021/11/20 03:53:17;;;;;;;0.50;0.40;;;;;;;10.27;91.07;98218.34;1754682;80;20879;-54
2021/11/20 03:55:46;;;;;;;0.70;0.40;;;;;;;10.27;90.94;98220.55;1755794;80;21065;-54
2021/11/20 03:58:13;;;;;;;0.98;0.40;;;;;;;10.28;90.80;98220.93;1755470;80;21036;-54
2021/11/20 04:00:44;;;;;;;0.60;0.37;;;;;;;10.30;90.67;98227.03;1751937;80;21077;-54
2021/11/20 04:03:12;;;;;;;0.50;0.40;;;;;;;10.31;90.48;98225.20;1755592;80;20938;-54
2021/11/20 04:05:39;;;;;;;1.37;0.40;;;;;;;10.33;90.37;98221.93;1689435;82;21067;-54
2021/11/20 04:08:06;;;;;;;0.57;0.35;;;;;;;10.33;90.21;98216.07;1750551;80;21116;-55
2021/11/20 04:10:33;;;;;;;0.65;0.40;;;;;;;10.36;90.01;98220.38;1753262;80;21125;-54
2021/11/20 04:13:00;;;;;;;0.78;0.40;;;;;;;10.34;89.80;98218.28;1751034;80;21076;-54
2021/11/20 04:15:28;;;;;;;0.45;0.40;;;;;;;10.34;89.69;98220.48;1750999;80;21041;-54
2021/11/20 04:17:54;;;;;;;1.02;0.50;;;;;;;10.34;89.51;98215.11;1753480;80;21410;-54
2021/11/20 04:20:23;;;;;;;1.47;0.40;;;;;;;10.33;89.34;98229.52;1749996;80;22232;-54
2021/11/20 04:22:51;;;;;;;1.27;0.40;;;;;;;10.34;89.22;98225.00;1754414;80;21021;-54
2021/11/20 04:25:20;;;;;;;0.68;0.40;;;;;;;10.35;89.09;98232.97;1754427;80;21498;-54
2021/11/20 04:27:55;;;;;;;1.27;0.40;;;;;;;10.36;88.89;98233.34;1685727;82;21367;-54
2021/11/20 04:30:38;;;;;;;2.08;0.50;;;;;;;10.37;88.62;98211.34;1754677;80;20931;-54
2021/11/20 04:33:06;;;;;;;2.45;0.50;;;;;;;10.39;88.48;98223.69;1753089;80;21092;-54
2021/11/20 04:35:33;;;;;;;0.70;0.40;;;;;;;10.38;88.21;98241.31;1687333;82;21076;-54
2021/11/20 04:38:01;;;;;;;0.40;0.30;;;;;;;10.38;88.00;98232.73;1755217;80;21377;-54
2021/11/20 04:40:28;;;;;;;0.93;0.40;;;;;;;10.38;87.81;98226.52;1756322;80;21432;-54
2021/11/20 04:42:56;;;;;;;0.78;0.33;;;;;;;10.41;87.63;98244.62;1735254;80;21065;-54
2021/11/20 04:45:25;;;;;;;0.65;0.33;;;;;;;10.42;87.37;98218.59;1755252;80;21140;-54
2021/11/20 04:47:52;;;;;;;0.72;0.33;;;;;;;10.44;87.02;98234.14;1756886;80;20898;-54
2021/11/20 04:50:22;;;;;;;0.75;0.40;;;;;;;10.43;86.82;98231.94;1690414;82;21406;-54
2021/11/20 04:52:49;;;;;;;0.53;0.40;;;;;;;10.45;86.48;98231.34;1756988;80;21312;-53
2021/11/20 04:55:16;;;;;;;1.07;0.40;;;;;;;10.47;86.20;98244.66;1753396;80;21490;-54
2021/11/20 04:57:43;;;;;;;2.25;0.50;;;;;;;10.47;85.96;98235.24;1759574;80;21839;-54
2021/11/20 05:00:24;;;;;;;1.22;0.42;;;;;;;10.49;85.76;98239.55;1760964;80;20864;-54
2021/11/20 05:02:52;;;;;;;2.87;0.40;;;;;;;10.51;85.54;98240.80;1739444;80;20943;-53
2021/11/20 05:05:21;;;;;;;2.77;0.30;;;;;;;10.53;85.40;98246.94;1756990;80;20950;-54
2021/11/20 05:07:47;;;;;;;0.53;0.30;;;;;;;10.52;85.23;98243.38;1754005;80;21017;-54
2021/11/20 05:10:14;;;;;;;2.27;0.45;;;;;;;10.53;85.11;98249.14;1723099;82;22860;-54
2021/11/20 05:12:41;;;;;;;0.90;0.30;;;;;;;10.54;84.90;98247.31;1749717;80;21567;-54
2021/11/20 05:15:11;;;;;;;1.25;0.40;;;;;;;10.54;84.86;98245.97;1691459;82;21047;-53
2021/11/20 05:17:38;;;;;;;0.68;0.45;;;;;;;10.55;84.72;98253.04;1753254;80;21607;-54
2021/11/20 05:20:07;;;;;;;1.20;0.40;;;;;;;10.53;84.37;98264.42;1761748;80;21084;-54
2021/11/20 05:22:34;;;;;;;1.00;0.30;;;;;;;10.48;84.28;98259.35;1760968;80;21423;-54
2021/11/20 05:25:01;;;;;;;0.60;0.30;;;;;;;10.46;84.13;98262.63;1759101;80;21020;-54
2021/11/20 05:27:28;;;;;;;1.15;0.40;;;;;;;10.44;84.12;98271.31;1702529;82;20997;-54
2021/11/20 05:32:21;;;;;;;0.60;0.40;;;;;;;10.45;83.96;98279.77;1766242;80;21397;-54
2021/11/20 05:34:47;;;;;;;3.60;0.30;;;;;;;10.43;83.86;98284.87;1764749;80;21108;-54
2021/11/20 05:37:15;;;;;;;2.45;0.30;;;;;;;10.44;83.72;98290.14;1761270;80;21512;-54
2021/11/20 05:39:42;;;;;;;0.80;0.30;;;;;;;10.46;83.63;98284.14;1766220;80;21460;-54
2021/11/20 05:42:09;;;;;;;1.77;0.65;;;;;;;10.48;83.36;98286.73;1761999;80;20876;-54
2021/11/20 05:44:36;;;;;;;1.77;0.40;;;;;;;10.50;83.14;98287.49;1762813;80;21743;-54
2021/11/20 05:47:05;;;;;;;1.00;0.40;;;;;;;10.53;82.97;98303.43;1699868;82;21030;-54
2021/11/20 05:49:36;;;;;;;2.10;0.40;;;;;;;10.55;82.81;98300.98;1766010;80;21699;-54
2021/11/20 05:52:05;;;;;;;0.82;0.40;;;;;;;10.57;82.57;98311.16;1766399;80;20978;-54
2021/11/20 05:54:34;;;;;;;1.50;0.50;;;;;;;10.59;82.45;98304.33;1766693;80;20935;-54
2021/11/20 05:57:03;;;;;;;1.45;0.40;;;;;;;10.59;82.24;98321.34;1765188;80;22026;-54
2021/11/20 05:59:31;;;;;;;2.00;0.47;;;;;;;10.58;82.02;98316.92;1764305;80;21098;-54
2021/11/20 06:01:58;;;;;;;1.95;0.40;;;;;;;10.55;81.62;98313.58;1736620;80;20988;-54
2021/11/20 06:04:29;;;;;;;1.60;0.40;;;;;;;10.54;81.71;98313.23;1765296;80;21448;-53
2021/11/20 06:06:54;;;;;;;1.82;0.40;;;;;;;10.53;81.63;98319.09;1764801;80;21009;-53
2021/11/20 06:09:22;;;;;;;1.47;0.50;;;;;;;10.54;81.58;98322.64;1765681;80;21067;-53
2021/11/20 06:11:48;;;;;;;0.98;0.37;;;;;;;10.54;81.46;98306.50;1761518;80;21131;-54
2021/11/20 06:14:15;;;;;;;0.85;0.40;;;;;;;10.56;81.33;98303.19;1759702;80;21076;-54
2021/11/20 06:16:41;;;;;;;1.20;0.40;;;;;;;10.59;81.29;98310.58;1695517;82;21118;-54
2021/11/20 06:19:10;;;;;;;4.62;0.50;;;;;;;10.61;81.09;98309.13;1712084;82;21097;-54
2021/11/20 06:21:38;;;;;;;3.50;0.47;;;;;;;10.63;80.91;98316.61;1711651;82;21143;-54
2021/11/20 06:24:06;;;;;;;1.25;0.50;;;;;;;10.62;80.79;98321.62;1735102;82;22092;-54
2021/11/20 06:26:34;;;;;;;1.07;0.45;;;;;;;10.62;80.60;98317.58;1722365;82;21019;-54
2021/11/20 06:29:02;;;;;;;1.35;0.30;;;;;;;10.60;80.50;98317.68;1712726;82;21028;-53
2021/11/20 06:31:31;;;;;;;1.50;0.45;;;;;;;10.59;80.44;98307.88;1713127;82;21487;-54
2021/11/20 06:34:00;;;;;;;0.60;0.40;;;;;;;10.59;80.23;98315.09;1700265;82;21063;-54
2021/11/20 06:36:32;;;;;;;1.90;0.60;;;;;;;10.58;80.12;98310.20;1655178;82;21184;-54
2021/11/20 06:39:00;;;;;;;1.45;0.40;;;;;;;10.59;80.09;98307.02;1729277;82;21354;-53
2021/11/20 06:41:27;;;;;;;1.87;0.50;;;;;;;10.58;80.05;98310.20;1714395;82;21287;-54
2021/11/20 06:43:54;;;;;;;0.78;0.40;;;;;;;10.57;79.87;98302.23;1713536;82;21239;-53
2021/11/20 06:46:21;;;;;;;3.17;0.40;;;;;;;10.56;79.83;98301.36;1730301;82;21526;-53
2021/11/20 06:48:48;;;;;;;1.87;0.40;;;;;;;10.58;79.83;98298.57;1732158;82;21353;-54
2021/11/20 06:51:19;;;;;;;0.98;0.50;;;;;;;10.60;79.79;98302.88;1708122;82;20912;-53
2021/11/20 06:54:05;;;;;;;1.30;0.40;;;;;;;10.63;79.73;98312.06;1734176;82;21732;-53
2021/11/20 06:57:04;;;;;;;3.70;0.50;;;;;;;10.71;79.57;98309.34;1674339;82;21101;-54
2021/11/20 07:02:34;;;;;;;2.33;0.50;;;;;;;10.82;79.00;98308.92;1725784;82;22224;-54
2021/11/20 07:05:01;;;;;;;3.15;0.40;;;;;;;10.85;78.58;98311.89;1733661;82;21417;-54
2021/11/20 07:07:28;;;;;;;1.17;0.40;;;;;;;10.89;78.11;98322.79;1732191;82;21556;-53
2021/11/20 07:09:55;;;;;;;2.20;0.50;;;;;;;10.90;77.80;98317.78;1724500;82;21728;-54
2021/11/20 07:12:22;;;;;;;2.27;0.47;;;;;;;10.94;77.36;98308.05;1728928;82;21423;-54
2021/11/20 07:14:48;;;;;;;3.12;0.40;;;;;;;11.00;77.06;98309.42;1728785;81;21053;-54
2021/11/20 07:17:15;;;;;;;1.92;0.40;;;;;;;11.07;76.70;98312.52;1708625;82;21395;-54
2021/11/20 07:19:43;;;;;;;1.10;0.40;;;;;;;11.13;76.27;98311.61;1721897;82;21052;-54
2021/11/20 07:22:29;;;;;;;0.90;0.40;;;;;;;11.18;76.05;98305.39;1759762;80;21057;-54
2021/11/20 07:24:58;;;;;;;3.00;0.47;;;;;;;11.24;75.54;98317.05;1758682;80;21963;-53
2021/11/20 07:27:24;;;;;;;1.92;0.40;;;;;;;11.29;74.93;98320.77;1759447;80;22182;-54
2021/11/20 07:29:51;;;;;;;1.45;0.30;;;;;;;11.33;74.44;98318.20;1761252;80;21670;-54
2021/11/20 07:32:20;;;;;;;0.95;0.40;;;;;;;11.36;73.66;98319.34;1722343;82;21050;-54
2021/11/20 07:34:46;;;;;;;1.72;0.60;;;;;;;11.37;72.83;98314.33;1762098;80;21092;-54
2021/11/20 07:37:13;;;;;;;2.12;0.50;;;;;;;11.38;72.58;98320.95;1760026;80;21111;-54
2021/11/20 07:39:39;;;;;;;3.22;0.42;;;;;;;11.39;72.05;98311.05;1759348;80;22487;-55
2021/11/20 07:42:06;;;;;;;2.98;0.40;;;;;;;11.40;71.87;98309.20;1758982;80;21313;-54
2021/11/20 07:44:34;;;;;;;3.27;0.40;;;;;;;11.43;71.69;98315.70;1760141;80;21077;-54
2021/11/20 07:47:01;;;;;;;1.45;0.40;;;;;;;11.44;70.87;98312.03;1758365;80;21089;-54
2021/11/20 07:49:30;;;;;;;3.55;0.60;;;;;;;11.45;70.68;98323.19;1703963;82;21008;-54
2021/11/20 07:51:56;;;;;;;2.47;0.53;;;;;;;11.45;70.45;98321.84;1765603;80;22194;-53
2021/11/20 07:54:23;;;;;;;5.17;0.95;;;;;;;11.45;69.84;98331.27;1758345;80;21541;-55
2021/11/20 07:56:52;;;;;;;1.80;0.42;;;;;;;11.43;69.75;98322.43;1722905;80;21072;-54
2021/11/20 07:59:24;;;;;;;4.05;0.50;;;;;;;11.40;69.35;98326.20;1732352;80;21148;-56
2021/11/20 08:01:53;;;;;;;2.22;0.40;;;;;;;11.38;68.78;98327.69;1731818;80;22417;-56
2021/11/20 08:04:21;;;;;;;1.77;0.42;;;;;;;11.35;68.81;98335.98;1756217;80;21723;-56
2021/11/20 08:06:55;;;;;;;8.10;0.60;;;;;;;11.35;68.90;98338.69;1731750;80;21013;-55
2021/11/20 08:09:24;;;;;;;3.83;0.40;;;;;;;11.37;68.70;98349.34;1753761;80;21086;-55
2021/11/20 08:11:51;;;;;;;0.90;0.30;;;;;;;11.38;68.56;98347.89;1762138;80;20942;-55
2021/11/20 08:14:21;;;;;;;2.10;0.60;;;;;;;11.38;68.42;98353.77;1761466;79;20914;-56
2021/11/20 08:16:52;;;;;;;3.47;0.50;;;;;;;11.36;67.74;98351.18;1764523;80;21053;-55
2021/11/20 08:19:26;;;;;;;5.00;0.40;;;;;;;11.35;67.87;98363.41;1726230;80;20985;-55
2021/11/20 08:22:04;;;;;;;4.03;0.50;;;;;;;11.36;68.03;98375.42;1769060;80;20899;-55
2021/11/20 08:24:32;;;;;;;2.33;0.50;;;;;;;11.37;67.80;98375.80;1769126;80;20906;-55
2021/11/20 08:27:00;;;;;;;2.40;0.50;;;;;;;11.39;67.89;98379.73;1752487;80;21002;-55
2021/11/20 08:29:30;;;;;;;1.98;0.45;;;;;;;11.45;67.15;98375.72;1773291;80;21354;-56
2021/11/20 08:31:57;;;;;;;2.92;0.47;;;;;;;11.51;66.43;98380.66;1766963;80;20904;-56
2021/11/20 08:34:28;;;;;;;5.35;0.50;;;;;;;11.52;64.69;98371.12;1770478;80;21341;-56
2021/11/20 08:36:59;;;;;;;3.00;0.55;;;;;;;11.55;64.35;98374.08;1709132;82;20956;-55
2021/11/20 08:39:28;;;;;;;4.40;0.70;;;;;;;11.55;63.67;98389.77;1716100;83;20891;-55
2021/11/20 08:41:55;;;;;;;2.70;0.35;;;;;;;11.53;63.57;98380.92;1692857;82;21124;-55
2021/11/20 08:44:23;;;;;;;6.53;0.60;;;;;;;11.52;63.53;98386.42;1715086;82;21049;-55
2021/11/20 08:46:51;;;;;;;4.50;0.53;;;;;;;11.51;63.88;98382.00;1727363;82;21656;-56
2021/11/20 08:49:18;;;;;;;3.87;0.50;;;;;;;11.49;63.63;98388.84;1700775;82;21051;-55
2021/11/20 08:51:45;;;;;;;2.47;0.50;;;;;;;11.48;63.37;98370.13;1707629;83;20993;-55
2021/11/20 08:54:12;;;;;;;4.00;0.50;;;;;;;11.47;63.40;98370.61;1699527;82;21128;-55
2021/11/20 08:56:41;;;;;;;6.12;0.60;;;;;;;11.45;63.60;98364.95;1702445;83;21121;-55
2021/11/20 08:59:11;;;;;;;2.35;0.70;;;;;;;11.44;63.49;98340.32;1703753;82;21116;-56
2021/11/20 09:02:07;;;;;;;1.82;0.50;;;;;;;11.42;62.99;98379.49;1711858;82;21248;-56
2021/11/20 09:04:56;;;;;;;4.28;0.50;;;;;;;11.42;63.21;98366.51;1704585;82;21054;-56
2021/11/20 09:07:56;;;;;;;6.25;0.60;;;;;;;11.41;63.09;98366.99;1703714;82;21787;-56
2021/11/20 09:10:28;;;;;;;3.67;0.60;;;;;;;11.40;62.46;98372.52;1715852;82;21033;-54
2021/11/20 09:13:06;;;;;;;4.58;0.40;;;;;;;11.38;62.22;98364.55;1698912;82;21308;-54
2021/11/20 09:17:19;;;;;;;2.73;0.50;;;;;;;11.40;61.83;98373.87;1794767;78;22668;-52
2021/11/20 09:19:47;;;;;;;2.45;0.50;;;;;;;11.34;61.30;98371.12;1767583;80;21084;-53
2021/11/20 09:22:16;;;;;;;8.38;0.50;;;;;;;11.31;61.24;98376.75;1773278;80;21076;-53
2021/11/20 09:24:50;;;;;;;3.17;0.40;;;;;;;11.29;61.02;98375.51;1748356;80;21089;-53
2021/11/20 09:27:21;;;;;;;1.67;0.40;;;;;;;11.28;60.94;98388.59;1763887;79;21042;-54
2021/11/20 09:29:48;;;;;;;2.98;0.60;;;;;;;11.24;60.60;98369.57;1765176;80;21316;-53
2021/11/20 09:32:15;;;;;;;3.52;0.40;;;;;;;11.22;60.11;98376.06;1747688;79;20942;-53
2021/11/20 09:34:43;;;;;;;4.92;0.50;;;;;;;11.25;60.05;98377.17;1736071;80;21186;-53
2021/11/20 09:37:10;;;;;;;2.12;0.55;;;;;;;11.27;60.43;98371.19;1661383;85;21060;-54
2021/11/20 09:39:41;;;;;;;2.05;0.42;;;;;;;11.32;59.67;98382.48;1691928;83;20989;-52
2021/11/20 09:42:34;;;;;;;3.75;0.57;;;;;;;11.34;59.03;98364.38;1694078;83;21085;-53
2021/11/20 09:45:18;;;;;;;5.03;0.45;;;;;;;11.37;58.81;98372.25;1698199;83;21554;-54
2021/11/20 09:47:59;;;;;;;5.65;0.47;;;;;;;11.43;58.41;98366.41;1698318;83;21432;-54
2021/11/20 09:50:38;;;;;;;3.10;0.50;;;;;;;11.48;57.91;98370.98;1700599;83;20951;-53
2021/11/20 09:53:08;;;;;;;4.85;0.50;;;;;;;11.53;57.44;98364.75;1665307;83;20982;-54
2021/11/20 09:55:46;;;;;;;4.92;0.55;;;;;;;11.58;57.11;98384.61;1697122;83;21663;-54
2021/11/20 09:58:20;;;;;;;4.60;1.05;;;;;;;11.61;56.58;98375.83;1695152;83;20938;-54
2021/11/20 10:01:15;;;;;;;2.80;0.62;;;;;;;11.64;56.30;98366.66;1695231;83;21144;-54
2021/11/20 10:04:05;;;;;;;3.67;0.50;;;;;;;11.66;56.27;98366.90;1698543;83;21084;-53
2021/11/20 10:06:47;;;;;;;1.92;0.40;;;;;;;11.67;56.33;98359.19;1695146;83;21142;-53
2021/11/20 10:09:26;;;;;;;3.00;0.50;;;;;;;11.69;56.71;98346.47;1697085;83;21430;-53
2021/11/20 10:12:00;;;;;;;5.25;0.50;;;;;;;11.71;57.20;98368.78;1696842;84;22031;-54
2021/11/20 10:14:56;;;;;;;3.47;0.47;;;;;;;11.75;57.28;98374.33;1709902;83;21802;-53
2021/11/20 10:17:43;;;;;;;1.37;0.45;;;;;;;11.79;56.58;98368.24;1677061;83;21380;-54
2021/11/20 10:20:24;;;;;;;5.08;0.50;;;;;;;11.81;55.49;98363.60;1687836;84;20917;-54
2021/11/20 10:23:26;;;;;;;8.35;0.60;;;;;;;11.79;53.73;98378.16;1688658;83;20931;-54
2021/11/20 10:26:13;;;;;;;2.45;0.50;;;;;;;11.72;52.12;98365.60;1715524;82;20918;-55
2021/11/20 10:29:08;;;;;;;3.42;0.50;;;;;;;11.64;52.85;98376.09;1681627;83;21098;-54
2021/11/20 10:32:04;;;;;;;3.55;0.50;;;;;;;11.57;52.64;98397.74;1687148;83;21298;-53
2021/11/20 10:35:00;;;;;;;2.17;0.50;;;;;;;11.57;52.64;98397.74;1687807;83;21400;-52
2021/11/20 10:37:40;;;;;;;2.08;0.50;;;;;;;11.49;52.05;98398.27;1631775;86;20976;-53
2021/11/20 10:40:21;;;;;;;1.70;0.40;;;;;;;11.44;52.50;98398.25;1693973;84;21430;-54
2021/11/20 10:43:27;;;;;;;2.65;0.47;;;;;;;11.43;53.82;98411.34;1676920;84;21848;-55
2021/11/20 10:46:27;;;;;;;3.55;0.57;;;;;;;11.43;53.82;98411.34;1716686;82;20938;-53
2021/11/20 10:49:25;;;;;;;3.58;0.50;;;;;;;11.45;54.11;98394.10;1714383;83;20993;-54
2021/11/20 10:52:39;;;;;;;2.05;0.30;;;;;;;11.49;53.76;98389.33;1710960;83;21109;-54
2021/11/20 10:55:35;;;;;;;7.92;0.40;;;;;;;11.55;53.32;98396.50;1657416;84;21617;-54
2021/11/20 10:58:28;;;;;;;1.37;0.40;;;;;;;11.61;52.14;98392.48;1691588;84;21188;-54
2021/11/20 11:01:15;;;;;;;2.47;0.50;;;;;;;11.61;50.94;98404.12;1669344;84;21544;-55
2021/11/20 11:03:59;;;;;;;2.72;0.57;;;;;;;11.56;49.51;98402.27;1714308;82;21177;-54
2021/11/20 11:06:55;;;;;;;3.90;0.50;;;;;;;11.56;49.51;98417.09;1714716;82;20907;-54
2021/11/20 11:09:45;;;;;;;2.87;0.47;;;;;;;11.52;49.97;98409.33;1707863;83;21044;-54
2021/11/20 11:12:39;;;;;;;4.67;0.53;;;;;;;11.51;49.92;98423.28;1690063;83;21115;-54
2021/11/20 11:15:35;;;;;;;5.33;0.42;;;;;;;11.53;50.57;98421.83;1716345;82;20909;-54
2021/11/20 11:18:23;;;;;;;2.62;0.60;;;;;;;11.53;51.15;98432.13;1681844;84;21122;-54
2021/11/20 11:21:29;;;;;;;3.22;0.50;;;;;;;11.56;51.69;98443.17;1684114;83;21375;-53
2021/11/20 11:24:16;;;;;;;1.40;0.40;;;;;;;11.60;52.03;98446.01;1713469;82;21532;-54
2021/11/20 11:27:00;;;;;;;4.67;0.50;;;;;;;11.60;51.61;98449.56;1714450;83;21096;-55
2021/11/20 11:29:50;;;;;;;3.27;0.47;;;;;;;11.60;50.77;98442.83;1671992;84;21686;-55
2021/11/20 11:32:17;;;;;;;4.00;0.50;;;;;;;11.57;50.81;98464.59;1628792;83;21670;-54
2021/11/20 11:34:48;;;;;;;6.62;0.60;;;;;;;11.56;50.64;98465.60;1693027;84;21366;-54
2021/11/20 11:37:32;;;;;;;1.62;0.40;;;;;;;11.54;50.01;98462.63;1679355;83;20930;-55
2021/11/20 11:40:30;;;;;;;6.62;0.50;;;;;;;11.50;49.56;98460.63;1683008;84;21130;-54
2021/11/20 11:43:26;;;;;;;4.30;0.82;;;;;;;11.45;49.64;98434.52;1688942;83;21065;-54
2021/11/20 11:46:10;;;;;;;2.02;0.45;;;;;;;11.41;49.54;98446.47;1676155;84;21654;-54
2021/11/20 11:48:55;;;;;;;4.45;0.50;;;;;;;11.38;49.12;98450.76;1680746;83;21054;-54
2021/11/20 11:52:15;;;;;;;2.08;0.40;;;;;;;11.34;48.82;98460.87;1679988;83;21060;-54
2021/11/20 11:54:49;;;;;;;3.58;0.40;;;;;;;11.28;47.81;98455.94;1710903;83;21433;-53
2021/11/20 11:57:21;;;;;;;1.67;0.50;;;;;;;11.21;47.60;98443.89;1705513;83;21090;-54
2021/11/20 12:00:18;;;;;;;3.12;0.50;;;;;;;11.16;47.30;98437.95;1710953;83;21126;-54
2021/11/20 12:02:51;;;;;;;2.27;0.50;;;;;;;11.13;47.36;98434.14;1679431;84;21149;-54
2021/11/20 12:05:26;;;;;;;3.80;0.50;;;;;;;11.11;47.21;98438.77;1712149;82;20978;-53
2021/11/20 12:08:01;;;;;;;2.87;0.50;;;;;;;11.11;47.55;98472.92;1655497;83;21153;-54
2021/11/20 12:10:37;;;;;;;2.30;0.50;;;;;;;11.08;48.34;98451.09;1628970;84;20972;-54
2021/11/20 12:13:11;;;;;;;3.95;0.40;;;;;;;11.07;48.71;98463.31;1677637;84;21548;-54
2021/11/20 12:15:49;;;;;;;2.77;0.40;;;;;;;11.05;49.30;98449.98;1687308;83;20951;-54
2021/11/20 12:18:36;;;;;;;2.37;0.47;;;;;;;11.05;49.45;98470.66;1684039;83;20932;-54